Time;durP1;ratioP1;P1;durP2;ratioP2;P2;SDS_P1;SDS_P2;PMS_P1;PMS_P2;Temp;Humidity;BMP_temperature;BMP_pressure;BME280_temperature;BME280_humidity;BME280_pressure;Samples;Min_cycle;Max_cycle;Signal;HPM_P1;HPM_P2
2022/03/22 00:00:38;;;;;;;47.28;40.47;;;6.10;99.90;;;;;;4994864;28;20141;-69
2022/03/22 00:03:05;;;;;;;44.40;39.55;;;6.10;99.90;;;;;;5013545;28;20052;-69
2022/03/22 00:05:33;;;;;;;53.83;41.55;;;6.00;99.90;;;;;;5014968;28;20045;-69
2022/03/22 00:08:01;;;;;;;47.60;40.70;;;6.00;99.90;;;;;;5014951;28;20537;-69
2022/03/22 00:10:28;;;;;;;47.60;40.95;;;6.00;99.90;;;;;;5005503;28;20140;-70
2022/03/22 00:12:55;;;;;;;52.13;41.35;;;6.00;99.90;;;;;;4988217;28;20068;-70
2022/03/22 00:15:22;;;;;;;46.55;41.08;;;5.90;99.90;;;;;;5014291;28;20041;-70
2022/03/22 00:18:10;;;;;;;51.03;41.80;;;5.90;99.90;;;;;;5000493;28;20042;-69
2022/03/22 00:20:37;;;;;;;49.08;41.80;;;5.80;99.90;;;;;;5012029;28;20057;-70
2022/03/22 00:23:04;;;;;;;47.60;41.00;;;5.70;99.90;;;;;;5012479;28;20052;-69
2022/03/22 00:25:30;;;;;;;52.63;42.03;;;5.80;99.90;;;;;;5013450;28;20538;-69
2022/03/22 00:27:57;;;;;;;51.22;41.97;;;5.80;99.90;;;;;;5011949;28;20057;-70
2022/03/22 00:30:32;;;;;;;49.53;42.33;;;5.80;99.90;;;;;;4994946;28;20048;-69
2022/03/22 00:33:01;;;;;;;46.30;40.67;;;5.80;99.90;;;;;;5008081;28;20045;-69
2022/03/22 00:35:30;;;;;;;52.83;40.85;;;5.70;99.90;;;;;;4994457;28;20357;-69
2022/03/22 00:37:59;;;;;;;54.85;41.47;;;5.70;99.90;;;;;;4995712;28;20061;-69
2022/03/22 00:40:28;;;;;;;54.00;42.28;;;5.80;99.90;;;;;;4993858;28;20058;-70
2022/03/22 00:42:56;;;;;;;49.33;40.95;;;5.90;99.90;;;;;;4996296;28;20141;-69
2022/03/22 00:45:29;;;;;;;51.22;41.53;;;5.80;99.90;;;;;;4996338;28;20320;-69
2022/03/22 00:47:58;;;;;;;47.72;39.58;;;5.80;99.90;;;;;;5016876;28;20057;-70
2022/03/22 00:50:28;;;;;;;50.03;39.05;;;5.70;99.90;;;;;;5031153;28;20342;-70
2022/03/22 00:52:57;;;;;;;44.60;39.75;;;5.70;99.90;;;;;;5033044;28;20068;-70
2022/03/22 00:55:27;;;;;;;52.08;40.72;;;5.80;99.90;;;;;;5013046;28;20087;-69
2022/03/22 00:57:55;;;;;;;49.63;40.33;;;5.70;99.90;;;;;;5013297;28;20052;-69
2022/03/22 01:00:26;;;;;;;45.97;39.20;;;5.70;99.90;;;;;;5010532;28;20528;-70
2022/03/22 01:02:55;;;;;;;50.88;40.83;;;5.70;99.90;;;;;;5013385;28;20096;-69
2022/03/22 01:05:24;;;;;;;54.55;40.83;;;5.80;99.90;;;;;;5014730;28;20053;-70
2022/03/22 01:08:05;;;;;;;47.10;38.45;;;5.70;99.90;;;;;;5014792;28;20057;-70
2022/03/22 01:10:34;;;;;;;48.78;39.40;;;5.80;99.90;;;;;;5013184;28;20046;-69
2022/03/22 01:13:02;;;;;;;48.03;39.75;;;5.80;99.90;;;;;;5015769;28;20373;-70
2022/03/22 01:15:34;;;;;;;48.20;39.85;;;5.80;99.90;;;;;;4981456;28;20046;-71
2022/03/22 01:18:07;;;;;;;48.45;40.63;;;5.80;99.90;;;;;;4979160;28;20053;-69
2022/03/22 01:20:37;;;;;;;54.78;41.33;;;5.70;99.90;;;;;;4994684;28;20056;-69
2022/03/22 01:23:05;;;;;;;45.67;39.92;;;5.70;99.90;;;;;;5013721;28;20064;-70
2022/03/22 01:25:34;;;;;;;48.92;40.45;;;5.60;99.90;;;;;;5012585;28;20047;-70
2022/03/22 01:28:04;;;;;;;49.83;39.85;;;5.60;99.90;;;;;;5013069;28;20224;-69
2022/03/22 01:30:31;;;;;;;46.63;39.38;;;5.50;99.90;;;;;;5009455;28;20045;-69
2022/03/22 01:32:58;;;;;;;47.58;40.83;;;5.50;99.90;;;;;;4995758;28;20087;-71
2022/03/22 01:35:29;;;;;;;49.95;42.00;;;5.40;99.90;;;;;;4992347;28;20061;-69
2022/03/22 01:37:57;;;;;;;45.95;41.00;;;5.40;99.90;;;;;;4976739;28;20056;-70
2022/03/22 01:40:26;;;;;;;47.65;40.13;;;5.40;99.90;;;;;;4993667;28;20053;-71
2022/03/22 01:42:53;;;;;;;51.17;40.63;;;5.30;99.90;;;;;;4993709;28;20501;-71
2022/03/22 01:45:20;;;;;;;48.63;40.58;;;5.30;99.90;;;;;;5020824;22;20147;-75
2022/03/22 01:47:49;;;;;;;53.00;41.22;;;5.20;99.90;;;;;;5047054;28;20098;-76
2022/03/22 01:50:19;;;;;;;56.20;41.85;;;5.20;99.90;;;;;;5038837;28;20192;-74
2022/03/22 01:52:46;;;;;;;48.72;39.53;;;5.30;99.90;;;;;;5041148;28;20044;-73
2022/03/22 01:55:16;;;;;;;50.22;40.88;;;5.30;99.90;;;;;;5039576;28;20134;-75
2022/03/22 01:57:47;;;;;;;48.25;39.35;;;5.30;99.90;;;;;;5020473;28;20119;-74
2022/03/22 02:00:16;;;;;;;43.35;38.75;;;5.40;99.90;;;;;;5018565;28;20079;-77
2022/03/22 02:05:56;;;;;;;45.10;38.85;;;5.60;99.90;;;;;;5018887;28;20061;-76
2022/03/22 02:08:29;;;;;;;47.28;38.50;;;5.60;99.90;;;;;;5003501;28;20161;-76
2022/03/22 02:11:01;;;;;;;48.22;38.70;;;5.60;99.90;;;;;;5007077;28;20569;-76
2022/03/22 02:13:31;;;;;;;51.55;38.72;;;5.50;99.90;;;;;;5019075;28;20061;-76
2022/03/22 02:15:59;;;;;;;43.83;39.17;;;5.60;99.90;;;;;;5018872;28;20125;-77
2022/03/22 02:18:27;;;;;;;47.00;37.90;;;5.50;99.90;;;;;;5004182;28;20042;-76
2022/03/22 02:20:54;;;;;;;50.78;39.90;;;5.50;99.90;;;;;;5003582;28;20050;-75
2022/03/22 02:23:48;;;;;;;46.65;38.58;;;5.50;99.90;;;;;;5005401;28;20050;-75
2022/03/22 02:26:16;;;;;;;49.35;40.03;;;5.40;99.90;;;;;;5010741;28;20173;-74
2022/03/22 02:28:43;;;;;;;49.80;39.90;;;5.30;99.90;;;;;;5023950;28;20037;-77
2022/03/22 02:31:10;;;;;;;48.88;40.58;;;5.20;99.90;;;;;;5021458;28;20108;-74
2022/03/22 02:33:42;;;;;;;54.47;41.20;;;5.20;99.90;;;;;;5023616;28;20052;-73
2022/03/22 02:36:09;;;;;;;45.45;40.05;;;5.10;99.90;;;;;;5023101;28;20112;-77
2022/03/22 02:38:35;;;;;;;45.47;39.47;;;5.00;99.90;;;;;;5024171;28;20095;-77
2022/03/22 02:41:03;;;;;;;49.58;40.35;;;5.10;99.90;;;;;;5022112;28;20053;-76
2022/03/22 02:43:30;;;;;;;45.85;39.10;;;5.00;99.90;;;;;;5013846;28;20630;-73
2022/03/22 02:45:57;;;;;;;47.15;39.97;;;5.00;99.90;;;;;;5019017;28;20140;-73
2022/03/22 02:48:24;;;;;;;46.78;39.95;;;5.10;99.90;;;;;;5023930;28;20151;-73
2022/03/22 02:50:51;;;;;;;50.13;39.83;;;5.10;99.90;;;;;;5043348;28;20577;-77
2022/03/22 02:53:18;;;;;;;55.50;39.78;;;5.10;99.90;;;;;;5044358;28;20044;-77
2022/03/22 02:55:45;;;;;;;51.33;42.63;;;5.00;99.90;;;;;;5030568;28;20076;-74
2022/03/22 02:58:11;;;;;;;52.80;40.50;;;5.00;99.90;;;;;;5022729;28;20085;-74
2022/03/22 03:00:38;;;;;;;48.00;41.50;;;4.90;99.90;;;;;;5019175;28;20041;-74
2022/03/22 03:03:05;;;;;;;45.35;40.20;;;4.90;99.90;;;;;;5023633;28;20080;-73
2022/03/22 03:05:33;;;;;;;46.03;39.97;;;4.80;99.90;;;;;;5006207;28;20589;-73
2022/03/22 03:08:00;;;;;;;52.28;40.78;;;4.70;99.90;;;;;;5004742;28;20088;-74
2022/03/22 03:10:27;;;;;;;50.67;40.30;;;4.70;99.90;;;;;;5034982;28;20050;-74
2022/03/22 03:13:01;;;;;;;48.58;41.00;;;4.70;99.90;;;;;;5004312;28;20149;-73
2022/03/22 03:15:28;;;;;;;50.53;41.15;;;4.70;99.90;;;;;;5015631;28;20050;-74
2022/03/22 03:17:55;;;;;;;58.38;42.55;;;4.70;99.90;;;;;;5023902;28;20144;-73
2022/03/22 03:20:21;;;;;;;47.70;39.70;;;4.70;99.90;;;;;;5021394;28;20232;-73
2022/03/22 03:22:48;;;;;;;51.03;41.42;;;4.50;99.90;;;;;;5023707;28;20152;-75
2022/03/22 03:25:15;;;;;;;54.25;41.70;;;4.50;99.90;;;;;;5015835;28;20415;-73
2022/03/22 03:27:42;;;;;;;53.17;42.83;;;4.50;99.90;;;;;;5023876;28;20076;-76
2022/03/22 03:30:08;;;;;;;54.85;42.22;;;4.40;99.90;;;;;;5018207;28;20073;-75
2022/03/22 03:32:36;;;;;;;51.30;41.38;;;4.40;99.90;;;;;;5022041;28;20128;-74
2022/03/22 03:35:04;;;;;;;53.53;43.38;;;4.40;99.90;;;;;;5023122;28;20045;-74
2022/03/22 03:37:37;;;;;;;55.10;43.85;;;4.30;99.90;;;;;;5022005;28;20140;-77
2022/03/22 03:40:05;;;;;;;51.10;41.08;;;4.30;99.90;;;;;;5021488;28;20140;-73
2022/03/22 03:42:32;;;;;;;56.33;42.95;;;4.20;99.90;;;;;;5021947;28;20046;-77
2022/03/22 03:47:44;;;;;;;53.38;42.58;;;4.00;99.90;;;;;;5020780;28;20085;-73
2022/03/22 03:50:11;;;;;;;52.85;41.58;;;4.00;99.90;;;;;;5041608;28;20057;-75
2022/03/22 03:52:38;;;;;;;52.67;40.53;;;4.00;99.90;;;;;;5042960;28;20124;-77
2022/03/22 03:55:07;;;;;;;54.40;41.03;;;4.00;99.90;;;;;;5041737;28;20053;-77
2022/03/22 03:57:35;;;;;;;51.22;41.72;;;3.90;99.90;;;;;;5022678;28;20139;-74
2022/03/22 04:00:04;;;;;;;54.92;42.75;;;4.00;99.90;;;;;;5019489;28;20841;-74
2022/03/22 04:02:38;;;;;;;53.03;41.80;;;4.00;99.90;;;;;;5022844;28;20045;-73
2022/03/22 04:05:05;;;;;;;46.25;41.13;;;3.90;99.90;;;;;;5020560;28;20045;-73
2022/03/22 04:07:32;;;;;;;58.80;41.95;;;3.80;99.90;;;;;;5017802;28;20073;-77
2022/03/22 04:09:59;;;;;;;47.42;40.33;;;3.90;99.90;;;;;;5020314;28;20073;-74
2022/03/22 04:12:26;;;;;;;53.70;41.28;;;4.00;99.90;;;;;;5020395;28;20053;-75
2022/03/22 04:14:53;;;;;;;52.75;41.67;;;3.80;99.90;;;;;;5020894;28;20092;-76
2022/03/22 04:17:20;;;;;;;52.55;40.78;;;3.90;99.90;;;;;;5020264;28;20274;-74
2022/03/22 04:19:48;;;;;;;50.58;41.05;;;3.80;99.90;;;;;;5020646;28;20879;-75
2022/03/22 04:22:16;;;;;;;48.40;41.67;;;3.90;99.90;;;;;;5021638;28;20132;-77
2022/03/22 04:24:43;;;;;;;52.22;40.97;;;3.90;99.90;;;;;;5022195;28;20111;-74
2022/03/22 04:32:43;;;;;;;50.17;42.13;;;3.80;99.90;;;;;;5019717;28;20081;-77
2022/03/22 04:35:14;;;;;;;45.85;40.42;;;3.90;99.90;;;;;;5020648;28;20144;-74
2022/03/22 04:37:41;;;;;;;52.05;41.13;;;3.80;99.90;;;;;;5021498;28;20495;-74
2022/03/22 04:40:10;;;;;;;53.25;43.22;;;3.80;99.90;;;;;;5020562;28;20141;-73
2022/03/22 04:42:37;;;;;;;57.42;44.92;;;3.70;99.90;;;;;;5020424;28;20064;-74
2022/03/22 04:45:04;;;;;;;52.75;42.33;;;3.60;99.90;;;;;;5021694;28;20077;-74
2022/03/22 04:47:33;;;;;;;55.50;42.45;;;3.60;99.90;;;;;;5019746;28;20041;-74
2022/03/22 04:49:59;;;;;;;54.42;43.67;;;3.60;99.90;;;;;;5040595;28;20140;-74
2022/03/22 04:57:57;;;;;;;58.30;43.25;;;3.50;99.90;;;;;;5021033;28;19929;-76
2022/03/22 05:00:24;;;;;;;60.38;45.05;;;3.50;99.90;;;;;;5018394;28;20129;-74
2022/03/22 05:02:50;;;;;;;57.55;44.25;;;3.50;99.90;;;;;;5020929;28;20057;-74
2022/03/22 05:06:25;;;;;;;60.85;44.90;;;3.50;99.90;;;;;;5019860;28;20076;-78
2022/03/22 05:08:05;;;;;;;56.53;44.50;;;3.50;99.90;;;;;;5018440;28;20083;-75
2022/03/22 05:10:35;;;;;;;53.97;43.38;;;3.40;99.90;;;;;;5035661;28;20144;-77
2022/03/22 05:13:04;;;;;;;55.33;43.05;;;3.40;99.90;;;;;;5021425;28;20114;-74
2022/03/22 05:15:32;;;;;;;53.28;43.20;;;3.30;99.90;;;;;;5019761;28;20041;-74
2022/03/22 05:17:59;;;;;;;54.35;43.45;;;3.40;99.90;;;;;;5021042;28;20123;-75
2022/03/22 05:20:26;;;;;;;55.58;42.17;;;3.40;99.90;;;;;;5002367;28;20049;-74
2022/03/22 05:22:53;;;;;;;58.78;45.13;;;3.40;99.90;;;;;;5020687;28;20049;-75
2022/03/22 05:25:20;;;;;;;55.45;43.38;;;3.40;99.90;;;;;;5021160;28;20478;-75
2022/03/22 05:27:47;;;;;;;56.13;42.55;;;3.40;99.90;;;;;;5019650;28;20049;-75
2022/03/22 05:30:13;;;;;;;52.33;41.13;;;3.40;99.90;;;;;;5011126;28;20072;-75
2022/03/22 05:32:41;;;;;;;55.50;43.97;;;3.40;99.90;;;;;;5020757;28;20038;-75
2022/03/22 05:35:08;;;;;;;61.15;43.95;;;3.40;99.90;;;;;;5020547;28;20049;-75
2022/03/22 05:37:35;;;;;;;52.20;46.22;;;3.40;99.90;;;;;;5020664;28;20099;-75
2022/03/22 05:40:03;;;;;;;53.13;45.70;;;3.40;99.90;;;;;;5019381;28;20104;-74
2022/03/22 05:42:31;;;;;;;58.30;47.60;;;3.40;99.90;;;;;;5020187;28;20076;-74
2022/03/22 05:44:58;;;;;;;58.97;46.00;;;3.30;99.90;;;;;;5000691;28;20137;-74
2022/03/22 05:47:25;;;;;;;54.25;46.05;;;3.40;99.90;;;;;;5016809;28;20125;-75
2022/03/22 05:49:51;;;;;;;53.47;44.38;;;3.50;99.90;;;;;;5025466;28;20058;-74
2022/03/22 05:52:18;;;;;;;55.95;44.45;;;3.70;99.90;;;;;;5015700;28;20053;-74
2022/03/22 05:54:45;;;;;;;56.63;45.25;;;3.80;99.90;;;;;;5001560;28;20390;-74
2022/03/22 05:57:11;;;;;;;56.97;45.72;;;3.90;99.90;;;;;;5016870;28;20065;-74
2022/03/22 05:59:38;;;;;;;57.60;44.05;;;4.00;99.90;;;;;;5018040;28;20137;-76
2022/03/22 06:02:05;;;;;;;56.60;47.80;;;3.90;99.90;;;;;;5020429;28;20475;-75
2022/03/22 06:04:32;;;;;;;55.20;45.53;;;3.70;99.90;;;;;;5021907;28;20106;-76
2022/03/22 06:07:00;;;;;;;56.33;46.83;;;3.80;99.90;;;;;;5019259;28;20061;-75
2022/03/22 06:09:27;;;;;;;50.10;44.58;;;3.70;99.90;;;;;;5020721;28;20597;-74
2022/03/22 06:11:54;;;;;;;60.05;48.85;;;3.60;99.90;;;;;;5018368;28;20106;-77
2022/03/22 06:14:20;;;;;;;58.33;48.70;;;3.50;99.90;;;;;;5018938;28;20619;-78
2022/03/22 06:16:47;;;;;;;58.47;48.88;;;3.50;99.90;;;;;;5018794;28;20572;-74
2022/03/22 06:19:14;;;;;;;60.67;48.50;;;3.50;99.90;;;;;;5018676;28;20050;-74
2022/03/22 06:21:41;;;;;;;56.33;47.17;;;3.50;99.90;;;;;;5019319;28;20038;-75
2022/03/22 06:24:07;;;;;;;58.63;46.30;;;3.40;99.90;;;;;;5020311;28;20668;-75
2022/03/22 06:26:34;;;;;;;56.50;45.75;;;3.50;99.90;;;;;;5017947;28;20049;-74
2022/03/22 06:29:02;;;;;;;59.40;47.42;;;3.50;99.90;;;;;;5017011;28;20061;-76
2022/03/22 06:31:33;;;;;;;55.75;46.15;;;3.70;99.90;;;;;;5016378;28;20128;-74
2022/03/22 06:34:03;;;;;;;54.67;46.65;;;3.80;99.90;;;;;;5005346;28;20115;-73
2022/03/22 06:36:30;;;;;;;57.92;45.53;;;3.90;99.90;;;;;;4998907;28;20052;-75
2022/03/22 06:38:57;;;;;;;61.58;45.97;;;4.00;99.90;;;;;;5000674;28;20045;-75
2022/03/22 06:41:24;;;;;;;50.03;44.53;;;4.10;99.90;;;;;;5019600;28;20140;-75
2022/03/22 06:43:50;;;;;;;49.63;43.85;;;4.20;99.90;;;;;;5020130;28;20115;-77
2022/03/22 06:46:18;;;;;;;53.08;44.60;;;4.30;99.90;;;;;;5019511;28;20049;-75
2022/03/22 06:48:45;;;;;;;53.03;46.30;;;4.40;99.90;;;;;;5029425;28;20040;-77
2022/03/22 06:51:16;;;;;;;56.80;45.67;;;4.60;99.90;;;;;;5018533;28;20053;-74
2022/03/22 06:53:43;;;;;;;60.65;47.92;;;4.70;99.90;;;;;;5018030;28;20069;-73
2022/03/22 06:56:09;;;;;;;54.45;47.13;;;4.90;99.90;;;;;;5019356;28;20511;-75
2022/03/22 06:58:36;;;;;;;62.00;48.42;;;5.00;99.90;;;;;;5019844;28;20084;-75
2022/03/22 07:01:04;;;;;;;69.30;49.80;;;5.20;99.90;;;;;;5016195;28;20054;-74
2022/03/22 07:03:32;;;;;;;63.00;48.80;;;5.40;99.90;;;;;;5020025;28;20096;-75
2022/03/22 07:05:59;;;;;;;59.30;47.13;;;5.50;99.90;;;;;;5020720;28;20075;-74
2022/03/22 07:08:26;;;;;;;62.70;47.90;;;5.70;99.90;;;;;;5023871;28;20107;-74
2022/03/22 07:13:38;;;;;;;52.65;44.60;;;5.90;99.90;;;;;;5023501;28;20271;-75
2022/03/22 07:16:05;;;;;;;51.53;45.92;;;6.00;99.90;;;;;;5021022;28;20096;-74
2022/03/22 07:18:32;;;;;;;50.40;43.42;;;6.20;99.90;;;;;;5023820;28;20049;-77
2022/03/22 07:21:04;;;;;;;51.10;44.03;;;6.40;99.90;;;;;;5016498;28;20046;-76
2022/03/22 07:23:31;;;;;;;50.35;43.42;;;6.60;99.90;;;;;;5004644;28;20129;-75
2022/03/22 07:25:58;;;;;;;53.10;43.67;;;6.80;99.90;;;;;;5008864;28;20049;-73
2022/03/22 07:28:26;;;;;;;50.17;43.85;;;7.00;99.90;;;;;;5022309;28;20048;-73
2022/03/22 07:30:53;;;;;;;48.83;42.53;;;7.10;99.90;;;;;;5004494;28;20041;-74
2022/03/22 07:33:19;;;;;;;49.42;41.58;;;7.30;99.90;;;;;;5024101;28;20064;-73
2022/03/22 07:35:46;;;;;;;48.53;40.38;;;7.50;99.90;;;;;;5023094;28;20057;-73
2022/03/22 07:38:13;;;;;;;49.03;42.03;;;7.60;99.90;;;;;;5022667;28;20073;-74
2022/03/22 07:40:39;;;;;;;50.22;39.35;;;7.90;99.90;;;;;;5022964;28;20111;-74
2022/03/22 07:43:06;;;;;;;45.47;39.70;;;8.30;99.90;;;;;;5022036;28;20503;-73
2022/03/22 07:45:33;;;;;;;41.78;37.65;;;8.70;99.90;;;;;;5050063;22;20110;-72
2022/03/22 07:48:00;;;;;;;41.50;37.33;;;9.20;99.90;;;;;;5029363;28;20054;-70
2022/03/22 07:53:12;;;;;;;41.55;37.47;;;10.30;99.90;;;;;;5022202;28;20156;-70
2022/03/22 07:55:40;;;;;;;41.50;37.33;;;10.90;99.90;;;;;;5020780;28;20107;-71
2022/03/22 07:58:08;;;;;;;42.70;38.53;;;11.40;99.90;;;;;;5015635;28;20061;-71
2022/03/22 08:00:38;;;;;;;40.40;36.40;;;11.80;99.90;;;;;;5008798;28;20504;-70
2022/03/22 08:03:12;;;;;;;40.85;36.70;;;12.10;99.90;;;;;;4992724;28;20146;-70
2022/03/22 08:05:40;;;;;;;40.03;36.22;;;12.30;99.90;;;;;;4990117;28;20075;-70
2022/03/22 08:08:07;;;;;;;44.65;40.60;;;12.50;99.90;;;;;;5022356;28;20128;-71
2022/03/22 08:10:54;;;;;;;46.05;41.75;;;12.80;99.90;;;;;;5020621;28;20208;-71
2022/03/22 08:13:21;;;;;;;46.70;42.40;;;12.70;99.90;;;;;;5025241;28;20057;-71
2022/03/22 08:15:47;;;;;;;46.17;41.83;;;13.00;99.90;;;;;;5004138;28;20057;-71
2022/03/22 08:18:16;;;;;;;45.92;41.70;;;12.80;99.90;;;;;;5020705;28;20053;-75
2022/03/22 08:20:43;;;;;;;46.53;42.22;;;12.50;99.90;;;;;;5002770;28;20577;-76
2022/03/22 08:23:10;;;;;;;47.35;42.80;;;12.20;99.90;;;;;;5004593;28;20733;-76
2022/03/22 08:25:39;;;;;;;45.70;41.15;;;12.50;99.90;;;;;;5003349;28;20110;-73
2022/03/22 08:28:08;;;;;;;45.60;41.40;;;12.70;99.90;;;;;;5013270;28;20096;-76
2022/03/22 08:30:37;;;;;;;44.53;40.55;;;12.80;99.90;;;;;;5009763;28;20115;-76
2022/03/22 08:33:07;;;;;;;45.85;41.45;;;12.80;99.80;;;;;;4993059;28;20038;-76
2022/03/22 08:35:35;;;;;;;47.30;42.40;;;12.70;99.90;;;;;;4986366;28;20103;-77
2022/03/22 08:38:03;;;;;;;46.30;41.30;;;13.00;99.90;;;;;;5005428;28;20080;-77
2022/03/22 08:40:30;;;;;;;46.28;41.92;;;13.20;99.90;;;;;;4989517;28;20091;-77
2022/03/22 08:42:57;;;;;;;46.15;41.78;;;13.60;98.20;;;;;;5005985;28;20064;-77
2022/03/22 08:45:26;;;;;;;47.03;42.70;;;13.90;98.10;;;;;;5005111;28;20041;-77
2022/03/22 08:47:54;;;;;;;47.97;43.53;;;13.90;96.80;;;;;;5019946;28;20621;-77
2022/03/22 08:50:25;;;;;;;48.88;44.65;;;14.00;96.10;;;;;;5013593;28;20120;-77
2022/03/22 08:52:53;;;;;;;47.60;43.45;;;13.80;95.80;;;;;;4986443;28;20471;-77
2022/03/22 08:55:22;;;;;;;48.83;43.95;;;13.90;95.20;;;;;;5004618;28;20053;-77
2022/03/22 08:57:49;;;;;;;47.70;43.13;;;14.00;95.20;;;;;;5009234;28;20057;-77
2022/03/22 09:00:19;;;;;;;47.63;43.65;;;14.00;95.10;;;;;;4980542;28;20056;-77
2022/03/22 09:02:50;;;;;;;48.03;43.47;;;14.00;94.80;;;;;;4992313;28;20042;-77
2022/03/22 09:08:05;;;;;;;;;;;13.90;93.60;;;;;;4994279;28;20072;-77
2022/03/22 09:10:35;;;;;;;49.20;45.00;;;13.90;94.20;;;;;;5020845;28;19932;-77
2022/03/22 09:13:02;;;;;;;46.88;42.83;;;13.90;93.60;;;;;;5021850;28;20103;-75
2022/03/22 09:15:30;;;;;;;46.17;42.17;;;14.00;94.10;;;;;;5019679;28;20072;-74
2022/03/22 09:17:57;;;;;;;47.80;43.55;;;14.20;93.00;;;;;;5020087;28;20048;-74
2022/03/22 09:20:25;;;;;;;46.58;42.60;;;14.60;93.10;;;;;;5019237;28;20458;-74
2022/03/22 09:22:53;;;;;;;47.85;43.70;;;14.60;92.40;;;;;;5019582;28;20060;-74
2022/03/22 09:25:23;;;;;;;48.25;44.22;;;14.70;92.60;;;;;;5002642;28;20431;-74
2022/03/22 09:27:50;;;;;;;47.25;43.28;;;15.30;93.10;;;;;;5004224;28;20194;-74
2022/03/22 09:30:17;;;;;;;48.17;44.03;;;15.70;90.50;;;;;;4996596;28;20084;-73
2022/03/22 09:32:44;;;;;;;46.42;42.38;;;15.50;87.80;;;;;;4990495;28;20045;-74
2022/03/22 09:35:13;;;;;;;46.90;43.33;;;15.90;89.00;;;;;;4982321;28;20050;-74
2022/03/22 09:37:42;;;;;;;46.70;43.00;;;15.80;87.70;;;;;;4987721;28;20523;-74
2022/03/22 09:40:10;;;;;;;45.67;41.85;;;15.60;86.30;;;;;;5002678;28;20140;-74
2022/03/22 09:42:42;;;;;;;46.47;42.33;;;15.50;86.30;;;;;;4991920;28;20065;-74
2022/03/22 09:45:10;;;;;;;46.08;41.97;;;15.90;85.70;;;;;;5011342;28;20100;-74
2022/03/22 09:47:37;;;;;;;47.72;43.72;;;16.00;86.40;;;;;;5002493;28;20065;-74
2022/03/22 09:50:07;;;;;;;45.05;41.58;;;15.80;85.30;;;;;;5000288;28;20427;-74
2022/03/22 09:52:35;;;;;;;47.03;43.35;;;15.80;85.10;;;;;;4983096;28;20057;-73
2022/03/22 09:55:08;;;;;;;47.45;43.42;;;15.70;83.80;;;;;;4999717;28;20104;-74
2022/03/22 09:57:36;;;;;;;47.15;43.28;;;15.80;85.20;;;;;;4976752;28;20100;-75
2022/03/22 10:00:05;;;;;;;47.55;43.70;;;16.10;84.10;;;;;;4995193;28;20153;-75
2022/03/22 10:02:37;;;;;;;50.10;45.55;;;16.00;84.70;;;;;;5007468;28;20037;-75
2022/03/22 10:05:05;;;;;;;49.50;45.22;;;15.90;86.00;;;;;;4980961;28;20045;-73
2022/03/22 10:07:32;;;;;;;48.42;44.55;;;16.10;86.60;;;;;;5008665;28;20140;-74
2022/03/22 10:10:02;;;;;;;45.92;42.47;;;15.60;81.60;;;;;;5018156;28;20084;-74
2022/03/22 10:12:35;;;;;;;47.45;43.88;;;15.80;82.10;;;;;;5000843;28;20148;-75
2022/03/22 10:15:13;;;;;;;50.45;46.40;;;15.70;81.90;;;;;;5001423;28;20095;-75
2022/03/22 10:17:43;;;;;;;49.33;45.40;;;15.70;82.20;;;;;;5018264;28;20318;-75
2022/03/22 10:20:24;;;;;;;50.42;46.58;;;15.70;82.90;;;;;;5007459;28;20139;-74
2022/03/22 10:22:56;;;;;;;52.88;48.88;;;15.60;83.10;;;;;;4996312;28;20135;-74
2022/03/22 10:25:23;;;;;;;51.30;46.88;;;15.40;84.70;;;;;;4992896;28;20049;-75
2022/03/22 10:27:54;;;;;;;50.70;46.47;;;15.50;82.90;;;;;;4993757;28;20041;-75
2022/03/22 10:30:25;;;;;;;52.63;48.67;;;15.80;81.40;;;;;;4993030;28;20045;-75
2022/03/22 10:32:53;;;;;;;52.15;47.63;;;15.80;82.80;;;;;;4997953;28;20141;-75
2022/03/22 10:35:34;;;;;;;53.67;49.28;;;16.10;81.70;;;;;;5013335;28;20514;-74
2022/03/22 10:38:04;;;;;;;52.40;48.30;;;16.20;82.20;;;;;;4975113;28;20057;-74
2022/03/22 10:40:57;;;;;;;53.53;49.08;;;16.10;83.10;;;;;;5015328;28;20037;-75
2022/03/22 10:43:26;;;;;;;54.83;50.17;;;16.20;83.30;;;;;;4998043;28;20241;-75
2022/03/22 10:46:02;;;;;;;55.45;50.67;;;16.00;82.10;;;;;;5001842;28;20412;-74
2022/03/22 10:48:33;;;;;;;54.45;49.90;;;16.00;82.50;;;;;;5014175;28;20777;-75
2022/03/22 10:51:01;;;;;;;54.60;49.10;;;16.10;80.90;;;;;;5003085;28;20053;-75
2022/03/22 10:53:30;;;;;;;52.85;48.38;;;16.00;82.60;;;;;;4995201;28;20117;-73
2022/03/22 10:55:59;;;;;;;52.25;48.22;;;15.90;81.30;;;;;;4992759;28;20065;-75
2022/03/22 10:58:27;;;;;;;53.33;49.13;;;15.90;82.30;;;;;;5003136;28;20507;-75
2022/03/22 11:00:56;;;;;;;54.67;49.95;;;16.10;81.00;;;;;;5000936;28;20285;-74
2022/03/22 11:03:25;;;;;;;54.00;49.63;;;16.00;80.50;;;;;;5001284;28;20064;-75
2022/03/22 11:05:53;;;;;;;54.50;50.17;;;16.00;79.70;;;;;;4991540;28;20080;-75
2022/03/22 11:08:22;;;;;;;50.58;46.58;;;16.00;82.00;;;;;;4990252;28;20046;-74
2022/03/22 11:10:50;;;;;;;53.05;48.55;;;16.00;80.00;;;;;;5000547;28;20041;-74
2022/03/22 11:13:17;;;;;;;53.78;49.15;;;15.90;79.00;;;;;;5020917;28;20819;-75
2022/03/22 11:15:48;;;;;;;51.55;47.25;;;15.70;80.00;;;;;;5020532;28;20488;-75
2022/03/22 11:18:18;;;;;;;55.50;50.55;;;15.80;79.20;;;;;;5005161;28;20049;-74
2022/03/22 11:20:49;;;;;;;52.65;48.38;;;15.80;80.40;;;;;;5021753;28;20494;-74
2022/03/22 11:23:21;;;;;;;52.05;47.88;;;16.10;79.80;;;;;;5004375;28;20038;-75
2022/03/22 11:25:48;;;;;;;51.25;46.85;;;16.20;79.90;;;;;;5019624;28;20396;-75
2022/03/22 11:28:20;;;;;;;51.47;47.05;;;16.30;78.40;;;;;;5012546;28;20782;-74
2022/03/22 11:30:48;;;;;;;52.05;47.70;;;16.10;79.40;;;;;;5016368;28;20042;-75
2022/03/22 11:36:16;;;;;;;49.88;45.78;;;16.00;77.70;;;;;;5003122;28;20519;-75
2022/03/22 11:38:49;;;;;;;52.83;48.55;;;16.40;77.20;;;;;;5018119;28;20271;-74
2022/03/22 11:44:22;;;;;;;50.75;46.58;;;16.00;78.00;;;;;;5023728;28;20045;-75
2022/03/22 11:47:06;;;;;;;52.53;48.08;;;15.80;76.80;;;;;;5002210;28;20038;-75
2022/03/22 11:49:52;;;;;;;52.45;48.28;;;15.80;78.40;;;;;;4997621;28;20073;-75
2022/03/22 11:52:22;;;;;;;52.35;48.20;;;15.90;77.20;;;;;;5017893;28;20519;-75
2022/03/22 11:55:12;;;;;;;51.85;47.92;;;15.70;78.30;;;;;;5003554;28;20107;-75
2022/03/22 11:57:47;;;;;;;52.95;48.95;;;15.70;78.60;;;;;;5015755;28;20053;-74
2022/03/22 12:00:17;;;;;;;52.72;48.72;;;15.90;80.00;;;;;;5008303;28;20069;-75
2022/03/22 12:02:52;;;;;;;54.08;49.58;;;16.20;79.60;;;;;;5009727;28;20058;-75
2022/03/22 12:05:20;;;;;;;;;;;16.40;78.30;;;;;;5003219;28;20315;-75
2022/03/22 12:07:47;;;;;;;54.83;50.03;;;16.50;80.60;;;;;;5002424;28;20283;-75
2022/03/22 12:10:17;;;;;;;52.58;48.45;;;16.60;79.00;;;;;;5020577;28;20059;-75
2022/03/22 12:12:49;;;;;;;54.13;49.67;;;16.70;79.00;;;;;;5022235;28;20057;-75
2022/03/22 12:15:18;;;;;;;52.92;48.72;;;16.40;77.50;;;;;;5009414;28;20073;-76
2022/03/22 12:17:45;;;;;;;52.65;48.08;;;16.40;80.40;;;;;;5003214;28;20057;-75
2022/03/22 12:20:15;;;;;;;50.90;46.92;;;16.20;78.30;;;;;;5020455;28;20103;-75
2022/03/22 12:23:03;;;;;;;54.33;49.40;;;16.40;79.50;;;;;;5020219;28;20049;-74
2022/03/22 12:25:32;;;;;;;53.55;48.67;;;16.40;78.50;;;;;;4985886;28;20045;-75
2022/03/22 12:28:06;;;;;;;54.88;50.45;;;16.10;77.80;;;;;;4998266;28;20038;-75
2022/03/22 12:30:39;;;;;;;53.58;49.20;;;16.20;79.10;;;;;;4995218;28;20049;-75
2022/03/22 12:33:13;;;;;;;55.85;51.35;;;16.30;81.40;;;;;;4992190;28;20057;-75
2022/03/22 12:35:41;;;;;;;53.88;49.38;;;16.40;78.60;;;;;;5002554;28;20045;-75
2022/03/22 12:38:09;;;;;;;53.15;48.65;;;16.40;76.90;;;;;;5002813;28;20343;-75
2022/03/22 12:40:37;;;;;;;52.25;48.00;;;16.70;76.80;;;;;;4985876;28;20064;-76
2022/03/22 12:43:06;;;;;;;50.85;47.15;;;16.80;78.30;;;;;;5015020;28;20577;-75
2022/03/22 12:45:33;;;;;;;51.65;47.17;;;16.90;74.20;;;;;;4985617;28;20383;-76
2022/03/22 12:48:01;;;;;;;48.67;44.67;;;17.10;76.10;;;;;;4999430;28;20108;-75
2022/03/22 12:50:28;;;;;;;48.30;44.80;;;17.00;71.40;;;;;;5000511;28;20037;-76
2022/03/22 12:52:56;;;;;;;49.70;45.72;;;17.00;71.10;;;;;;4985367;28;20487;-75
2022/03/22 12:55:23;;;;;;;50.67;47.10;;;17.10;72.00;;;;;;5007543;28;20061;-75
2022/03/22 12:57:56;;;;;;;52.22;47.85;;;17.20;70.10;;;;;;4994754;28;20049;-75
2022/03/22 13:00:35;;;;;;;49.08;45.38;;;16.90;69.50;;;;;;4993075;28;20111;-75
2022/03/22 13:03:06;;;;;;;50.95;46.83;;;16.90;70.60;;;;;;5007502;28;20053;-76
2022/03/22 13:05:33;;;;;;;47.90;44.40;;;16.90;70.90;;;;;;5001435;28;20065;-75
2022/03/22 13:08:23;;;;;;;48.40;44.88;;;17.10;66.10;;;;;;4987537;28;20627;-75
2022/03/22 13:16:34;;;;;;;50.10;45.97;;;16.80;64.10;;;;;;5017831;28;20189;-76
2022/03/22 13:19:01;;;;;;;44.47;41.13;;;16.80;64.30;;;;;;5002351;28;20077;-76